Prairie Village, Indiana
Current Conditions -  °F | °C
As of 8:06 PM on Friday 19 Dec 2014 (Local Time) from KHUF Reporting Station
Overcast Overcast  
Wind Chill: 25°   Ceiling: 2900
Heat Index: 31°   Visibility: 10mi
Dew Point: 24°   Wind: 6mph
Humidity: 76%   Direction: 80°E
Pressure: 30.3"   Gusts: NA
Location:  39.3587°N, 87.4056°W
Report Text: KHUF 200106Z 08005KT 10SM OVC029 M01/M04 A3030 RMK AO2 T10061044
Loading
Personal Weather Stations






























Interactive Weather Map New forecast layout! Learn more

10-Day Weather Forecast

Advertisements
Track Severe Weather on mobile